AR76 weather

Augusta Heliport
Augusta, Arkansas, United States

Public forecast

Using degrees Fahrenheit for public forecast. Weather courtesy of forecast.io.

Closest aviation weather report (METAR) to Augusta Heliport

Closest report is Searcy Municipal Airport, 19.2 nm (35.5 km) WSW. Retrieved 2020/01/19 05:56 UTC (57 minutes ago):

KSRC 190556Z AUTO 32003KT 10SM CLR 02/M10 A3043 RMK AO2 SLP308 T00221100 10089 20022 401940022 51017 FZRANO

Closest aviation forecast (TAF) to Augusta Heliport

Closest forecast is Little Rock Air Force Base, 44.8 nm (83.0 km) WSW. Retrieved 2020/01/19 07:21 UTC (0 seconds ago):

TAF KLRF 190700Z 1907/2013 33009KT 9999 SKC 520019 5200919 QNH3042INS BECMG 1915/1916 34012G20KT 9999 SCT200 520209 QNH3043INS BECMG 1922/1923 35009KT 9999 SKC QNH3043INS TX10/1921Z TNM01/0812Z